sensor_id;sensor_type;location;lat;lon;timestamp;temperature;humidity
68248;SHT30;55064;49.636;12.164;2023-08-20T00:00:39;21.96;83.69
68248;SHT30;55064;49.636;12.164;2023-08-20T00:03:13;21.93;83.61
68248;SHT30;55064;49.636;12.164;2023-08-20T00:05:41;21.98;83.13
68248;SHT30;55064;49.636;12.164;2023-08-20T00:08:07;22.04;82.92
68248;SHT30;55064;49.636;12.164;2023-08-20T00:10:32;22.10;82.41
68248;SHT30;55064;49.636;12.164;2023-08-20T00:12:59;22.17;82.21
68248;SHT30;55064;49.636;12.164;2023-08-20T00:15:26;22.21;82.51
68248;SHT30;55064;49.636;12.164;2023-08-20T00:17:56;22.24;82.52
68248;SHT30;55064;49.636;12.164;2023-08-20T00:20:23;22.00;83.76
68248;SHT30;55064;49.636;12.164;2023-08-20T00:22:49;21.98;84.26
68248;SHT30;55064;49.636;12.164;2023-08-20T00:25:15;22.08;83.51
68248;SHT30;55064;49.636;12.164;2023-08-20T00:27:43;22.08;83.72
68248;SHT30;55064;49.636;12.164;2023-08-20T00:30:09;22.08;83.48
68248;SHT30;55064;49.636;12.164;2023-08-20T00:32:35;22.10;83.70
68248;SHT30;55064;49.636;12.164;2023-08-20T00:35:04;22.15;83.55
68248;SHT30;55064;49.636;12.164;2023-08-20T00:37:31;22.12;83.94
68248;SHT30;55064;49.636;12.164;2023-08-20T00:39:59;22.11;83.32
68248;SHT30;55064;49.636;12.164;2023-08-20T00:42:25;22.15;83.59
68248;SHT30;55064;49.636;12.164;2023-08-20T00:44:51;22.21;83.01
68248;SHT30;55064;49.636;12.164;2023-08-20T00:47:18;22.18;83.17
68248;SHT30;55064;49.636;12.164;2023-08-20T00:49:43;22.21;82.80
68248;SHT30;55064;49.636;12.164;2023-08-20T00:52:11;22.22;83.21
68248;SHT30;55064;49.636;12.164;2023-08-20T00:54:40;22.21;83.12
68248;SHT30;55064;49.636;12.164;2023-08-20T00:57:06;22.15;82.96
68248;SHT30;55064;49.636;12.164;2023-08-20T00:59:33;22.18;83.62
68248;SHT30;55064;49.636;12.164;2023-08-20T01:01:59;22.20;83.83
68248;SHT30;55064;49.636;12.164;2023-08-20T01:04:25;22.11;83.47
68248;SHT30;55064;49.636;12.164;2023-08-20T01:10:23;22.05;83.55
68248;SHT30;55064;49.636;12.164;2023-08-20T01:12:51;21.98;83.74
68248;SHT30;55064;49.636;12.164;2023-08-20T01:15:17;21.97;83.80
68248;SHT30;55064;49.636;12.164;2023-08-20T01:17:43;21.94;83.91
68248;SHT30;55064;49.636;12.164;2023-08-20T01:20:09;21.92;83.79
68248;SHT30;55064;49.636;12.164;2023-08-20T01:28:23;21.96;82.68
68248;SHT30;55064;49.636;12.164;2023-08-20T01:30:49;21.94;83.55
68248;SHT30;55064;49.636;12.164;2023-08-20T01:33:16;21.97;83.37
68248;SHT30;55064;49.636;12.164;2023-08-20T01:35:41;21.96;82.83
68248;SHT30;55064;49.636;12.164;2023-08-20T01:38:07;22.00;82.42
68248;SHT30;55064;49.636;12.164;2023-08-20T01:40:37;22.00;82.28
68248;SHT30;55064;49.636;12.164;2023-08-20T01:43:02;22.04;82.97
68248;SHT30;55064;49.636;12.164;2023-08-20T01:45:29;22.00;83.57
68248;SHT30;55064;49.636;12.164;2023-08-20T01:47:54;21.87;84.66
68248;SHT30;55064;49.636;12.164;2023-08-20T01:50:22;21.75;85.01
68248;SHT30;55064;49.636;12.164;2023-08-20T01:52:51;21.67;85.32
68248;SHT30;55064;49.636;12.164;2023-08-20T01:55:16;21.70;85.30
68248;SHT30;55064;49.636;12.164;2023-08-20T01:57:41;21.69;85.31
68248;SHT30;55064;49.636;12.164;2023-08-20T02:00:09;21.72;85.07
68248;SHT30;55064;49.636;12.164;2023-08-20T02:02:36;21.67;85.29
68248;SHT30;55064;49.636;12.164;2023-08-20T02:05:04;21.67;85.48
68248;SHT30;55064;49.636;12.164;2023-08-20T02:07:32;21.69;85.19
68248;SHT30;55064;49.636;12.164;2023-08-20T02:10:01;21.75;84.73
68248;SHT30;55064;49.636;12.164;2023-08-20T02:12:27;21.79;84.50
68248;SHT30;55064;49.636;12.164;2023-08-20T02:14:52;21.80;84.79
68248;SHT30;55064;49.636;12.164;2023-08-20T02:17:18;21.77;85.38
68248;SHT30;55064;49.636;12.164;2023-08-20T02:19:44;21.70;86.05
68248;SHT30;55064;49.636;12.164;2023-08-20T02:22:10;21.63;86.21
68248;SHT30;55064;49.636;12.164;2023-08-20T02:24:38;21.60;86.57
68248;SHT30;55064;49.636;12.164;2023-08-20T02:27:03;21.57;86.64
68248;SHT30;55064;49.636;12.164;2023-08-20T02:29:28;21.48;86.78
68248;SHT30;55064;49.636;12.164;2023-08-20T02:31:54;21.49;86.36
68248;SHT30;55064;49.636;12.164;2023-08-20T02:34:19;21.49;86.62
68248;SHT30;55064;49.636;12.164;2023-08-20T02:36:45;21.49;86.25
68248;SHT30;55064;49.636;12.164;2023-08-20T02:39:13;21.46;86.35
68248;SHT30;55064;49.636;12.164;2023-08-20T02:41:41;21.43;86.30
68248;SHT30;55064;49.636;12.164;2023-08-20T02:44:06;21.39;86.78
68248;SHT30;55064;49.636;12.164;2023-08-20T02:46:35;21.38;86.63
68248;SHT30;55064;49.636;12.164;2023-08-20T02:49:01;21.42;86.90
68248;SHT30;55064;49.636;12.164;2023-08-20T02:51:33;21.42;86.78
68248;SHT30;55064;49.636;12.164;2023-08-20T02:53:59;21.38;86.56
68248;SHT30;55064;49.636;12.164;2023-08-20T02:56:24;21.34;86.94
68248;SHT30;55064;49.636;12.164;2023-08-20T02:58:50;21.24;87.11
68248;SHT30;55064;49.636;12.164;2023-08-20T03:01:23;21.28;86.83
68248;SHT30;55064;49.636;12.164;2023-08-20T03:03:49;21.21;86.73
68248;SHT30;55064;49.636;12.164;2023-08-20T03:06:15;21.25;86.81
68248;SHT30;55064;49.636;12.164;2023-08-20T03:08:40;21.20;86.78
68248;SHT30;55064;49.636;12.164;2023-08-20T03:11:06;21.17;87.01
68248;SHT30;55064;49.636;12.164;2023-08-20T03:13:33;21.14;86.90
68248;SHT30;55064;49.636;12.164;2023-08-20T03:15:59;21.15;87.13
68248;SHT30;55064;49.636;12.164;2023-08-20T03:18:26;21.14;87.84
68248;SHT30;55064;49.636;12.164;2023-08-20T03:20:54;21.08;87.89
68248;SHT30;55064;49.636;12.164;2023-08-20T03:23:20;21.00;87.52
68248;SHT30;55064;49.636;12.164;2023-08-20T03:25:46;20.97;87.77
68248;SHT30;55064;49.636;12.164;2023-08-20T03:28:15;20.88;88.18
68248;SHT30;55064;49.636;12.164;2023-08-20T03:30:40;20.77;88.81
68248;SHT30;55064;49.636;12.164;2023-08-20T03:33:08;20.80;88.85
68248;SHT30;55064;49.636;12.164;2023-08-20T03:35:33;20.81;88.56
68248;SHT30;55064;49.636;12.164;2023-08-20T03:37:58;20.80;88.19
68248;SHT30;55064;49.636;12.164;2023-08-20T03:40:25;20.83;87.90
68248;SHT30;55064;49.636;12.164;2023-08-20T03:42:51;20.79;87.95
68248;SHT30;55064;49.636;12.164;2023-08-20T03:45:17;20.69;88.38
68248;SHT30;55064;49.636;12.164;2023-08-20T03:47:42;20.70;88.13
68248;SHT30;55064;49.636;12.164;2023-08-20T03:50:10;20.72;87.96
68248;SHT30;55064;49.636;12.164;2023-08-20T03:52:38;20.67;88.06
68248;SHT30;55064;49.636;12.164;2023-08-20T03:55:05;20.69;87.93
68248;SHT30;55064;49.636;12.164;2023-08-20T03:57:30;20.72;87.70
68248;SHT30;55064;49.636;12.164;2023-08-20T04:00:00;20.72;87.74
68248;SHT30;55064;49.636;12.164;2023-08-20T04:02:26;20.74;87.14
68248;SHT30;55064;49.636;12.164;2023-08-20T04:04:56;20.77;87.32
68248;SHT30;55064;49.636;12.164;2023-08-20T04:07:22;20.73;87.41
68248;SHT30;55064;49.636;12.164;2023-08-20T04:09:47;20.70;87.73
68248;SHT30;55064;49.636;12.164;2023-08-20T04:12:12;20.69;87.52
68248;SHT30;55064;49.636;12.164;2023-08-20T04:14:41;20.65;87.75
68248;SHT30;55064;49.636;12.164;2023-08-20T04:17:06;20.66;87.47
68248;SHT30;55064;49.636;12.164;2023-08-20T04:19:31;20.63;87.49
68248;SHT30;55064;49.636;12.164;2023-08-20T04:21:57;20.62;87.60
68248;SHT30;55064;49.636;12.164;2023-08-20T04:24:22;20.57;87.70
68248;SHT30;55064;49.636;12.164;2023-08-20T04:26:47;20.55;87.93
68248;SHT30;55064;49.636;12.164;2023-08-20T04:29:13;20.50;88.06
68248;SHT30;55064;49.636;12.164;2023-08-20T04:31:39;20.47;88.25
68248;SHT30;55064;49.636;12.164;2023-08-20T04:34:04;20.43;88.38
68248;SHT30;55064;49.636;12.164;2023-08-20T04:36:32;20.40;88.61
68248;SHT30;55064;49.636;12.164;2023-08-20T04:38:58;20.38;89.15
68248;SHT30;55064;49.636;12.164;2023-08-20T04:41:25;20.26;89.19
68248;SHT30;55064;49.636;12.164;2023-08-20T04:43:51;20.21;89.30
68248;SHT30;55064;49.636;12.164;2023-08-20T04:46:17;20.14;89.80
68248;SHT30;55064;49.636;12.164;2023-08-20T04:48:43;20.08;89.79
68248;SHT30;55064;49.636;12.164;2023-08-20T04:51:08;20.12;89.50
68248;SHT30;55064;49.636;12.164;2023-08-20T04:53:37;20.05;89.33
68248;SHT30;55064;49.636;12.164;2023-08-20T04:56:02;20.08;89.38
68248;SHT30;55064;49.636;12.164;2023-08-20T04:58:28;20.08;89.20
68248;SHT30;55064;49.636;12.164;2023-08-20T05:00:53;20.17;88.96
68248;SHT30;55064;49.636;12.164;2023-08-20T05:03:18;20.15;89.08
68248;SHT30;55064;49.636;12.164;2023-08-20T05:05:50;20.17;89.26
68248;SHT30;55064;49.636;12.164;2023-08-20T05:08:16;20.21;89.16
68248;SHT30;55064;49.636;12.164;2023-08-20T05:10:41;20.28;88.57
68248;SHT30;55064;49.636;12.164;2023-08-20T05:13:10;20.35;88.51
68248;SHT30;55064;49.636;12.164;2023-08-20T05:15:37;20.40;88.43
68248;SHT30;55064;49.636;12.164;2023-08-20T05:18:03;20.47;88.42
68248;SHT30;55064;49.636;12.164;2023-08-20T05:20:30;20.57;88.14
68248;SHT30;55064;49.636;12.164;2023-08-20T05:22:56;20.59;87.73
68248;SHT30;55064;49.636;12.164;2023-08-20T05:25:21;20.62;87.83
68248;SHT30;55064;49.636;12.164;2023-08-20T05:27:46;20.65;88.45
68248;SHT30;55064;49.636;12.164;2023-08-20T05:30:12;20.67;88.25
68248;SHT30;55064;49.636;12.164;2023-08-20T05:32:37;20.77;87.78
68248;SHT30;55064;49.636;12.164;2023-08-20T05:35:03;20.88;87.70
68248;SHT30;55064;49.636;12.164;2023-08-20T05:37:31;21.02;87.18
68248;SHT30;55064;49.636;12.164;2023-08-20T05:39:56;21.10;86.52
68248;SHT30;55064;49.636;12.164;2023-08-20T05:42:22;21.14;86.27
68248;SHT30;55064;49.636;12.164;2023-08-20T05:44:47;21.21;86.10
68248;SHT30;55064;49.636;12.164;2023-08-20T05:47:15;21.24;86.19
68248;SHT30;55064;49.636;12.164;2023-08-20T05:49:43;21.25;86.69
68248;SHT30;55064;49.636;12.164;2023-08-20T05:52:09;21.25;86.97
68248;SHT30;55064;49.636;12.164;2023-08-20T05:54:34;21.34;87.00
68248;SHT30;55064;49.636;12.164;2023-08-20T05:56:59;21.39;86.65
68248;SHT30;55064;49.636;12.164;2023-08-20T05:59:25;21.45;86.42
68248;SHT30;55064;49.636;12.164;2023-08-20T06:01:55;21.63;86.11
68248;SHT30;55064;49.636;12.164;2023-08-20T06:04:23;21.73;85.87
68248;SHT30;55064;49.636;12.164;2023-08-20T06:06:49;21.86;85.40
68248;SHT30;55064;49.636;12.164;2023-08-20T06:09:15;21.94;85.02
68248;SHT30;55064;49.636;12.164;2023-08-20T06:11:41;22.15;84.87
68248;SHT30;55064;49.636;12.164;2023-08-20T06:14:09;22.34;84.54
68248;SHT30;55064;49.636;12.164;2023-08-20T06:16:35;22.42;83.25
68248;SHT30;55064;49.636;12.164;2023-08-20T06:19:00;22.53;83.52
68248;SHT30;55064;49.636;12.164;2023-08-20T06:21:28;22.63;82.49
68248;SHT30;55064;49.636;12.164;2023-08-20T06:23:55;22.65;82.15
68248;SHT30;55064;49.636;12.164;2023-08-20T06:26:21;22.70;82.02
68248;SHT30;55064;49.636;12.164;2023-08-20T06:28:47;22.79;82.55
68248;SHT30;55064;49.636;12.164;2023-08-20T06:31:12;22.85;82.69
68248;SHT30;55064;49.636;12.164;2023-08-20T06:33:37;22.94;82.84
68248;SHT30;55064;49.636;12.164;2023-08-20T06:36:03;22.96;82.78
68248;SHT30;55064;49.636;12.164;2023-08-20T06:38:29;22.97;82.37
68248;SHT30;55064;49.636;12.164;2023-08-20T06:40:54;22.96;81.91
68248;SHT30;55064;49.636;12.164;2023-08-20T06:43:19;23.02;81.63
68248;SHT30;55064;49.636;12.164;2023-08-20T06:45:45;23.10;81.71
68248;SHT30;55064;49.636;12.164;2023-08-20T06:48:12;23.15;81.07
68248;SHT30;55064;49.636;12.164;2023-08-20T06:50:38;23.24;80.15
68248;SHT30;55064;49.636;12.164;2023-08-20T06:53:03;23.35;79.73
68248;SHT30;55064;49.636;12.164;2023-08-20T06:55:30;23.51;79.34
68248;SHT30;55064;49.636;12.164;2023-08-20T06:57:55;23.66;78.18
68248;SHT30;55064;49.636;12.164;2023-08-20T07:00:23;23.70;77.58
68248;SHT30;55064;49.636;12.164;2023-08-20T07:02:49;23.80;77.45
68248;SHT30;55064;49.636;12.164;2023-08-20T07:05:15;23.83;77.49
68248;SHT30;55064;49.636;12.164;2023-08-20T07:07:40;23.85;77.68
68248;SHT30;55064;49.636;12.164;2023-08-20T07:10:07;24.04;76.76
68248;SHT30;55064;49.636;12.164;2023-08-20T07:12:32;24.03;76.67
68248;SHT30;55064;49.636;12.164;2023-08-20T07:14:58;24.14;76.88
68248;SHT30;55064;49.636;12.164;2023-08-20T07:17:23;24.25;76.45
68248;SHT30;55064;49.636;12.164;2023-08-20T07:19:50;24.25;76.34
68248;SHT30;55064;49.636;12.164;2023-08-20T07:22:16;24.17;76.58
68248;SHT30;55064;49.636;12.164;2023-08-20T07:24:41;24.27;77.05
68248;SHT30;55064;49.636;12.164;2023-08-20T07:27:07;24.33;76.99
68248;SHT30;55064;49.636;12.164;2023-08-20T07:29:37;24.42;77.15
68248;SHT30;55064;49.636;12.164;2023-08-20T07:32:05;24.47;76.41
68248;SHT30;55064;49.636;12.164;2023-08-20T07:34:30;24.57;76.62
68248;SHT30;55064;49.636;12.164;2023-08-20T07:37:01;24.67;76.70
68248;SHT30;55064;49.636;12.164;2023-08-20T07:39:26;24.79;76.29
68248;SHT30;55064;49.636;12.164;2023-08-20T07:41:52;24.85;75.69
68248;SHT30;55064;49.636;12.164;2023-08-20T07:44:18;24.89;75.36
68248;SHT30;55064;49.636;12.164;2023-08-20T07:46:48;25.02;75.30
68248;SHT30;55064;49.636;12.164;2023-08-20T07:49:13;25.16;75.57
68248;SHT30;55064;49.636;12.164;2023-08-20T07:51:42;25.31;74.59
68248;SHT30;55064;49.636;12.164;2023-08-20T07:54:07;25.45;74.16
68248;SHT30;55064;49.636;12.164;2023-08-20T07:56:35;25.60;73.63
68248;SHT30;55064;49.636;12.164;2023-08-20T07:59:03;25.72;73.87
68248;SHT30;55064;49.636;12.164;2023-08-20T08:01:30;25.90;73.39
68248;SHT30;55064;49.636;12.164;2023-08-20T08:03:56;26.15;73.91
68248;SHT30;55064;49.636;12.164;2023-08-20T08:06:24;26.36;74.02
68248;SHT30;55064;49.636;12.164;2023-08-20T08:12:11;26.72;72.72
68248;SHT30;55064;49.636;12.164;2023-08-20T08:14:37;27.03;72.36
68248;SHT30;55064;49.636;12.164;2023-08-20T08:17:02;27.08;71.70
68248;SHT30;55064;49.636;12.164;2023-08-20T08:19:28;27.00;71.21
68248;SHT30;55064;49.636;12.164;2023-08-20T08:21:54;27.06;71.43
68248;SHT30;55064;49.636;12.164;2023-08-20T08:24:22;27.03;71.11
68248;SHT30;55064;49.636;12.164;2023-08-20T08:26:48;27.22;70.34
68248;SHT30;55064;49.636;12.164;2023-08-20T08:29:13;27.67;69.72
68248;SHT30;55064;49.636;12.164;2023-08-20T08:31:39;28.01;68.73
68248;SHT30;55064;49.636;12.164;2023-08-20T08:34:04;27.90;67.88
68248;SHT30;55064;49.636;12.164;2023-08-20T08:36:32;28.31;67.52
68248;SHT30;55064;49.636;12.164;2023-08-20T08:38:58;28.46;67.21
68248;SHT30;55064;49.636;12.164;2023-08-20T08:41:26;28.71;66.76
68248;SHT30;55064;49.636;12.164;2023-08-20T08:43:55;28.68;66.61
68248;SHT30;55064;49.636;12.164;2023-08-20T08:46:22;29.02;65.29
68248;SHT30;55064;49.636;12.164;2023-08-20T08:48:49;29.20;64.17
68248;SHT30;55064;49.636;12.164;2023-08-20T08:51:14;29.36;63.69
68248;SHT30;55064;49.636;12.164;2023-08-20T08:53:42;29.66;63.47
68248;SHT30;55064;49.636;12.164;2023-08-20T08:56:08;29.69;63.61
68248;SHT30;55064;49.636;12.164;2023-08-20T08:58:34;29.45;62.68
68248;SHT30;55064;49.636;12.164;2023-08-20T09:01:00;29.57;62.16
68248;SHT30;55064;49.636;12.164;2023-08-20T09:03:25;29.52;61.69
68248;SHT30;55064;49.636;12.164;2023-08-20T09:06:01;29.39;61.86
68248;SHT30;55064;49.636;12.164;2023-08-20T09:08:30;29.76;62.19
68248;SHT30;55064;49.636;12.164;2023-08-20T09:11:00;29.70;61.27
68248;SHT30;55064;49.636;12.164;2023-08-20T09:13:42;30.08;60.51
68248;SHT30;55064;49.636;12.164;2023-08-20T09:16:12;30.24;60.11
68248;SHT30;55064;49.636;12.164;2023-08-20T09:18:39;30.42;59.70
68248;SHT30;55064;49.636;12.164;2023-08-20T09:21:09;30.60;59.20
68248;SHT30;55064;49.636;12.164;2023-08-20T09:23:34;30.51;58.66
68248;SHT30;55064;49.636;12.164;2023-08-20T09:26:05;30.72;58.52
68248;SHT30;55064;49.636;12.164;2023-08-20T09:28:44;30.63;58.27
68248;SHT30;55064;49.636;12.164;2023-08-20T09:31:12;31.03;56.83
68248;SHT30;55064;49.636;12.164;2023-08-20T09:33:52;30.93;57.12
68248;SHT30;55064;49.636;12.164;2023-08-20T09:36:30;30.97;56.15
68248;SHT30;55064;49.636;12.164;2023-08-20T09:38:56;31.10;55.60
68248;SHT30;55064;49.636;12.164;2023-08-20T09:41:22;31.34;53.13
68248;SHT30;55064;49.636;12.164;2023-08-20T09:43:48;31.53;53.50
68248;SHT30;55064;49.636;12.164;2023-08-20T09:46:15;31.21;55.24
68248;SHT30;55064;49.636;12.164;2023-08-20T09:48:46;31.65;52.65
68248;SHT30;55064;49.636;12.164;2023-08-20T09:51:19;32.02;52.13
68248;SHT30;55064;49.636;12.164;2023-08-20T09:56:28;32.35;49.76
68248;SHT30;55064;49.636;12.164;2023-08-20T09:58:55;32.10;47.68
68248;SHT30;55064;49.636;12.164;2023-08-20T10:01:22;32.28;48.20
68248;SHT30;55064;49.636;12.164;2023-08-20T10:03:50;32.30;47.68
68248;SHT30;55064;49.636;12.164;2023-08-20T10:06:15;32.06;48.72
68248;SHT30;55064;49.636;12.164;2023-08-20T10:08:48;32.30;48.72
68248;SHT30;55064;49.636;12.164;2023-08-20T10:11:15;32.35;49.48
68248;SHT30;55064;49.636;12.164;2023-08-20T10:13:40;31.93;50.45
68248;SHT30;55064;49.636;12.164;2023-08-20T10:16:08;31.96;49.22
68248;SHT30;55064;49.636;12.164;2023-08-20T10:18:37;32.38;49.11
68248;SHT30;55064;49.636;12.164;2023-08-20T10:21:02;32.62;49.19
68248;SHT30;55064;49.636;12.164;2023-08-20T10:23:28;31.83;50.21
68248;SHT30;55064;49.636;12.164;2023-08-20T10:25:54;32.10;50.30
68248;SHT30;55064;49.636;12.164;2023-08-20T10:28:31;31.61;50.09
68248;SHT30;55064;49.636;12.164;2023-08-20T10:31:09;31.90;50.16
68248;SHT30;55064;49.636;12.164;2023-08-20T10:36:20;32.23;50.56
68248;SHT30;55064;49.636;12.164;2023-08-20T10:38:56;32.06;51.28
68248;SHT30;55064;49.636;12.164;2023-08-20T10:41:27;32.30;51.83
68248;SHT30;55064;49.636;12.164;2023-08-20T10:43:57;32.54;51.50
68248;SHT30;55064;49.636;12.164;2023-08-20T10:46:23;32.37;50.23
68248;SHT30;55064;49.636;12.164;2023-08-20T10:48:52;32.04;50.26
68248;SHT30;55064;49.636;12.164;2023-08-20T10:51:29;32.03;50.31
68248;SHT30;55064;49.636;12.164;2023-08-20T10:59:20;33.06;49.49
68248;SHT30;55064;49.636;12.164;2023-08-20T11:01:48;33.31;49.88
68248;SHT30;55064;49.636;12.164;2023-08-20T11:04:15;33.46;49.84
68248;SHT30;55064;49.636;12.164;2023-08-20T11:06:44;33.69;48.89
68248;SHT30;55064;49.636;12.164;2023-08-20T11:09:12;33.98;47.27
68248;SHT30;55064;49.636;12.164;2023-08-20T11:11:39;34.05;46.71
68248;SHT30;55064;49.636;12.164;2023-08-20T11:14:12;34.35;47.25
68248;SHT30;55064;49.636;12.164;2023-08-20T11:16:39;34.30;45.99
68248;SHT30;55064;49.636;12.164;2023-08-20T11:19:05;34.22;45.31
68248;SHT30;55064;49.636;12.164;2023-08-20T11:21:37;33.53;43.53
68248;SHT30;55064;49.636;12.164;2023-08-20T11:24:04;32.92;44.87
68248;SHT30;55064;49.636;12.164;2023-08-20T11:26:30;32.93;44.27
68248;SHT30;55064;49.636;12.164;2023-08-20T11:29:05;33.03;43.55
68248;SHT30;55064;49.636;12.164;2023-08-20T11:31:31;32.92;44.60
68248;SHT30;55064;49.636;12.164;2023-08-20T11:34:01;33.17;44.48
68248;SHT30;55064;49.636;12.164;2023-08-20T11:36:28;33.35;43.53
68248;SHT30;55064;49.636;12.164;2023-08-20T11:38:54;33.91;43.59
68248;SHT30;55064;49.636;12.164;2023-08-20T11:41:23;34.44;42.34
68248;SHT30;55064;49.636;12.164;2023-08-20T11:43:52;33.29;43.66
68248;SHT30;55064;49.636;12.164;2023-08-20T11:46:22;33.17;44.27
68248;SHT30;55064;49.636;12.164;2023-08-20T11:49:01;33.20;44.89
68248;SHT30;55064;49.636;12.164;2023-08-20T11:51:28;33.35;44.99
68248;SHT30;55064;49.636;12.164;2023-08-20T11:53:56;33.51;45.34
68248;SHT30;55064;49.636;12.164;2023-08-20T11:56:22;33.76;44.63
68248;SHT30;55064;49.636;12.164;2023-08-20T11:58:52;33.57;44.85
68248;SHT30;55064;49.636;12.164;2023-08-20T12:01:20;34.08;45.15
68248;SHT30;55064;49.636;12.164;2023-08-20T12:03:47;34.03;44.77
68248;SHT30;55064;49.636;12.164;2023-08-20T12:06:20;34.58;44.62
68248;SHT30;55064;49.636;12.164;2023-08-20T12:08:46;34.49;43.72
68248;SHT30;55064;49.636;12.164;2023-08-20T12:11:12;34.43;44.91
68248;SHT30;55064;49.636;12.164;2023-08-20T12:13:39;34.01;44.89
68248;SHT30;55064;49.636;12.164;2023-08-20T12:16:06;33.91;45.00
68248;SHT30;55064;49.636;12.164;2023-08-20T12:18:32;33.68;45.19
68248;SHT30;55064;49.636;12.164;2023-08-20T12:20:58;33.65;44.81
68248;SHT30;55064;49.636;12.164;2023-08-20T12:23:24;33.85;43.39
68248;SHT30;55064;49.636;12.164;2023-08-20T12:25:51;33.61;42.15
68248;SHT30;55064;49.636;12.164;2023-08-20T12:28:17;33.55;43.41
68248;SHT30;55064;49.636;12.164;2023-08-20T12:30:46;33.48;44.84
68248;SHT30;55064;49.636;12.164;2023-08-20T12:33:11;33.23;43.64
68248;SHT30;55064;49.636;12.164;2023-08-20T12:35:38;33.75;43.84
68248;SHT30;55064;49.636;12.164;2023-08-20T12:38:03;33.82;44.36
68248;SHT30;55064;49.636;12.164;2023-08-20T12:40:31;34.15;44.37
68248;SHT30;55064;49.636;12.164;2023-08-20T12:42:57;34.12;43.46
68248;SHT30;55064;49.636;12.164;2023-08-20T12:45:24;34.01;42.90
68248;SHT30;55064;49.636;12.164;2023-08-20T12:47:49;33.54;43.91
68248;SHT30;55064;49.636;12.164;2023-08-20T12:50:14;33.39;44.92
68248;SHT30;55064;49.636;12.164;2023-08-20T12:52:44;33.41;44.41
68248;SHT30;55064;49.636;12.164;2023-08-20T12:55:12;33.62;43.65
68248;SHT30;55064;49.636;12.164;2023-08-20T12:57:54;33.98;42.53
68248;SHT30;55064;49.636;12.164;2023-08-20T13:00:27;33.74;43.62
68248;SHT30;55064;49.636;12.164;2023-08-20T13:02:56;34.05;44.08
68248;SHT30;55064;49.636;12.164;2023-08-20T13:05:23;34.57;43.06
68248;SHT30;55064;49.636;12.164;2023-08-20T13:07:49;34.39;43.50
68248;SHT30;55064;49.636;12.164;2023-08-20T13:10:16;34.58;42.82
68248;SHT30;55064;49.636;12.164;2023-08-20T13:12:46;34.24;43.46
68248;SHT30;55064;49.636;12.164;2023-08-20T13:15:17;34.17;42.93
68248;SHT30;55064;49.636;12.164;2023-08-20T13:17:47;33.62;43.88
68248;SHT30;55064;49.636;12.164;2023-08-20T13:20:13;33.75;44.16
68248;SHT30;55064;49.636;12.164;2023-08-20T13:22:39;33.84;44.34
68248;SHT30;55064;49.636;12.164;2023-08-20T13:25:13;34.09;43.83
68248;SHT30;55064;49.636;12.164;2023-08-20T13:27:40;33.96;43.90
68248;SHT30;55064;49.636;12.164;2023-08-20T13:30:07;34.26;43.37
68248;SHT30;55064;49.636;12.164;2023-08-20T13:32:35;34.05;43.81
68248;SHT30;55064;49.636;12.164;2023-08-20T13:35:03;33.98;44.46
68248;SHT30;55064;49.636;12.164;2023-08-20T13:37:33;34.02;43.79
68248;SHT30;55064;49.636;12.164;2023-08-20T13:40:08;34.08;43.59
68248;SHT30;55064;49.636;12.164;2023-08-20T13:42:35;34.35;43.96
68248;SHT30;55064;49.636;12.164;2023-08-20T13:45:01;33.89;43.83
68248;SHT30;55064;49.636;12.164;2023-08-20T13:47:27;33.61;43.26
68248;SHT30;55064;49.636;12.164;2023-08-20T13:49:53;34.09;43.20
68248;SHT30;55064;49.636;12.164;2023-08-20T13:52:18;33.89;42.94
68248;SHT30;55064;49.636;12.164;2023-08-20T13:54:43;34.10;43.68
68248;SHT30;55064;49.636;12.164;2023-08-20T13:57:09;34.06;43.39
68248;SHT30;55064;49.636;12.164;2023-08-20T13:59:35;34.71;43.16
68248;SHT30;55064;49.636;12.164;2023-08-20T14:02:06;34.60;42.57
68248;SHT30;55064;49.636;12.164;2023-08-20T14:04:33;34.54;42.42
68248;SHT30;55064;49.636;12.164;2023-08-20T14:07:00;34.13;43.15
68248;SHT30;55064;49.636;12.164;2023-08-20T14:09:25;34.12;43.28
68248;SHT30;55064;49.636;12.164;2023-08-20T14:11:51;34.27;44.05
68248;SHT30;55064;49.636;12.164;2023-08-20T14:14:22;33.82;45.00
68248;SHT30;55064;49.636;12.164;2023-08-20T14:16:49;33.47;45.10
68248;SHT30;55064;49.636;12.164;2023-08-20T14:19:15;33.47;44.50
68248;SHT30;55064;49.636;12.164;2023-08-20T14:21:43;33.76;44.51
68248;SHT30;55064;49.636;12.164;2023-08-20T14:24:08;33.54;44.40
68248;SHT30;55064;49.636;12.164;2023-08-20T14:26:34;33.62;45.05
68248;SHT30;55064;49.636;12.164;2023-08-20T14:28:59;34.24;45.08
68248;SHT30;55064;49.636;12.164;2023-08-20T14:31:30;34.16;44.77
68248;SHT30;55064;49.636;12.164;2023-08-20T14:33:58;34.10;44.68
68248;SHT30;55064;49.636;12.164;2023-08-20T14:36:29;33.68;43.87
68248;SHT30;55064;49.636;12.164;2023-08-20T14:38:58;33.61;44.51
68248;SHT30;55064;49.636;12.164;2023-08-20T14:41:25;33.24;45.02
68248;SHT30;55064;49.636;12.164;2023-08-20T14:43:57;33.65;44.25
68248;SHT30;55064;49.636;12.164;2023-08-20T14:49:42;33.92;43.25
68248;SHT30;55064;49.636;12.164;2023-08-20T14:52:38;33.69;42.78
68248;SHT30;55064;49.636;12.164;2023-08-20T14:55:03;33.48;42.56
68248;SHT30;55064;49.636;12.164;2023-08-20T14:57:31;33.40;43.22
68248;SHT30;55064;49.636;12.164;2023-08-20T14:59:57;33.40;42.99
68248;SHT30;55064;49.636;12.164;2023-08-20T15:02:22;33.29;43.92
68248;SHT30;55064;49.636;12.164;2023-08-20T15:04:47;33.13;44.61
68248;SHT30;55064;49.636;12.164;2023-08-20T15:07:13;33.48;44.31
68248;SHT30;55064;49.636;12.164;2023-08-20T15:09:40;33.47;44.01
68248;SHT30;55064;49.636;12.164;2023-08-20T15:12:06;33.58;42.36
68248;SHT30;55064;49.636;12.164;2023-08-20T15:14:31;33.44;42.94
68248;SHT30;55064;49.636;12.164;2023-08-20T15:17:01;33.72;43.35
68248;SHT30;55064;49.636;12.164;2023-08-20T15:19:27;33.57;43.84
68248;SHT30;55064;49.636;12.164;2023-08-20T15:21:53;33.27;43.75
68248;SHT30;55064;49.636;12.164;2023-08-20T15:24:19;33.16;42.51
68248;SHT30;55064;49.636;12.164;2023-08-20T15:26:44;33.46;42.94
68248;SHT30;55064;49.636;12.164;2023-08-20T15:29:10;33.53;44.28
68248;SHT30;55064;49.636;12.164;2023-08-20T15:31:48;33.34;42.93
68248;SHT30;55064;49.636;12.164;2023-08-20T15:34:16;33.17;43.00
68248;SHT30;55064;49.636;12.164;2023-08-20T15:36:49;33.16;43.56
68248;SHT30;55064;49.636;12.164;2023-08-20T15:39:21;33.14;43.44
68248;SHT30;55064;49.636;12.164;2023-08-20T15:41:51;33.17;43.43